Flight Track Log - Related Links

Times and Time Zones

All times are in EDT time to prevent confusion due to time zone crossing. See the N5626Y flight status page for this flight to view local times or setup timezone preferences in your user account.

Time Position Orientation Groundspeed Altitude Reporting Facility
EDT Latitude Longitude Course Direction KTS MPH feet Rate Location/Type
Thu 03:24:02 PM 35.5178 -84.6878 340° North 208 239 5,200  Level Indianapolis Center
Thu 03:24:45 PM 35.5475 -84.7100 329° Northwest 218 251 6,100 1,282 Climbing Atlanta Center
Thu 03:25:45 PM 35.5994 -84.7333 340° North 200 230 7,400 1,250 Climbing Atlanta Center
Thu 03:26:45 PM 35.6536 -84.7594 339° North 200 230 8,600 1,300 Climbing Atlanta Center
Thu 03:27:45 PM 35.7078 -84.7831 341° North 200 230 10,000 1,450 Climbing Atlanta Center
Thu 03:28:45 PM 35.7597 -84.8039 342° North 195 224 11,500 1,350 Climbing Atlanta Center
Thu 03:29:00 PM 35.6389 -84.6712 340° North  Level Estimated
Thu 03:29:45 PM 35.8097 -84.8247 341° North 189 217 12,700  Level Atlanta Center
Thu 03:30:45 PM 35.8636 -84.8458 342° North 189 217 13,700 1,050 Climbing Atlanta Center
Thu 03:31:45 PM 35.9261 -84.8747 339° North 202 232 14,800 1,097 Climbing Atlanta Center
Thu 03:32:18 PM 35.9544 -84.8806 351° North 214 246 15,400 1,137 Climbing Indianapolis Center
Thu 03:33:20 PM 36.0175 -84.8853 357° North 203 234 16,600 1,065 Climbing Indianapolis Center
Thu 03:34:22 PM 36.0725 -84.8911 355° North 199 229 17,600 968 Climbing Indianapolis Center
Thu 03:35:24 PM 36.1269 -84.8961 356° North 197 227 18,600 823 Climbing Indianapolis Center
Thu 03:36:26 PM 36.1833 -84.9044 353° North 201 231 19,300 768 Climbing Indianapolis Center
Thu 03:37:29 PM 36.2392 -84.9100 355° North 201 231 20,200 768 Climbing Indianapolis Center
Thu 03:38:31 PM 36.2922 -84.9200 351° North 196 226 20,900 774 Climbing Indianapolis Center
Thu 03:39:33 PM 36.3567 -84.9278 354° North 194 223 21,800 532 Climbing Indianapolis Center
Thu 03:40:35 PM 36.4117 -84.9353 354° North 196 226 22,000 97 Climbing Indianapolis Center
Thu 03:41:37 PM 36.4725 -84.9428 354° North 215 247 22,000  Level Indianapolis Center
Thu 03:42:39 PM 36.5375 -84.9481 356° North 231 266 22,000  Level Indianapolis Center
Thu 03:43:41 PM 36.6019 -84.9583 353° North 234 269 22,000  Level Indianapolis Center
Thu 03:44:43 PM 36.6672 -84.9628 357° North 235 270 22,000  Level Indianapolis Center
Thu 03:45:45 PM 36.7433 -84.9811 349° North 233 268 22,000  Level Indianapolis Center
Thu 03:46:47 PM 36.8017 -85.0158 335° Northwest 232 267 22,000  Level Indianapolis Center
Thu 03:47:49 PM 36.8622 -85.0461 338° Northwest 233 268 22,000  Level Indianapolis Center
Thu 03:48:51 PM 36.9239 -85.0728 341° North 235 270 22,000  Level Indianapolis Center
Thu 03:49:53 PM 36.9847 -85.0986 341° North 231 266 22,000  Level Indianapolis Center
Thu 03:50:55 PM 37.0514 -85.1264 342° North 234 269 22,000  Level Indianapolis Center
Thu 03:51:57 PM 37.1139 -85.1536 341° North 236 272 22,000  Level Indianapolis Center
Thu 03:52:59 PM 37.1758 -85.1792 342° North 234 269 22,000  Level Indianapolis Center
Thu 03:54:01 PM 37.2483 -85.2106 341° North 235 270 22,000  Level Indianapolis Center
Thu 03:55:03 PM 37.3100 -85.2361 342° North 235 270 22,000  Level Indianapolis Center
Thu 03:56:06 PM 37.3722 -85.2642 340° North 236 272 22,000  Level Indianapolis Center
Thu 03:57:08 PM 37.4361 -85.2911 341° North 239 275 22,000  Level Indianapolis Center
Thu 03:58:10 PM 37.5006 -85.3175 342° North 242 278 22,000  Level Indianapolis Center
Thu 03:59:12 PM 37.5639 -85.3456 341° North 240 276 22,000  Level Indianapolis Center
Thu 04:00:14 PM 37.6386 -85.3775 341° North 241 277 22,000  Level Indianapolis Center
Thu 04:02:18 PM 37.7683 -85.4336 341° North 247 284 22,000  Level Indianapolis Center
Thu 04:03:20 PM 37.8375 -85.4642 341° North 249 287 22,000  Level Indianapolis Center
Thu 04:04:22 PM 37.9050 -85.4917 342° North 252 290 22,000  Level Indianapolis Center
Thu 04:05:24 PM 37.9708 -85.5200 341° North 250 288 22,000  Level Indianapolis Center
Thu 04:06:26 PM 38.0361 -85.5483 341° North 248 285 22,000  Level Indianapolis Center
Thu 04:07:28 PM 38.1008 -85.5772 341° North 247 284 22,000  Level Indianapolis Center
Thu 04:08:30 PM 38.1714 -85.5906 352° North 253 291 22,000  Level Indianapolis Center
Thu 04:09:32 PM 38.2564 -85.6061 352° North 256 295 22,000  Level Indianapolis Center
Thu 04:10:34 PM 38.3258 -85.6200 351° North 253 291 22,000  Level Indianapolis Center
Thu 04:11:36 PM 38.3956 -85.6333 351° North 252 290 22,000  Level Indianapolis Center
Thu 04:12:38 PM 38.4644 -85.6469 351° North 250 288 22,000  Level Indianapolis Center
Thu 04:13:41 PM 38.5342 -85.6603 351° North 253 291 22,000  Level Indianapolis Center
Thu 04:14:43 PM 38.6031 -85.6736 351° North 250 288 22,000  Level Indianapolis Center
Thu 04:15:45 PM 38.6778 -85.6886 351° North 252 290 22,000  Level Indianapolis Center
Thu 04:16:47 PM 38.7472 -85.6981 354° North 252 290 22,000  Level Indianapolis Center
Thu 04:17:49 PM 38.8075 -85.6381 38° Northeast 276 318 22,000  Level Indianapolis Center
Thu 04:18:51 PM 38.8808 -85.5708 36° Northeast 269 310 22,000  Level Indianapolis Center
Thu 04:19:53 PM 38.9472 -85.5894 348° North 249 287 22,000  Level Indianapolis Center
Thu 04:20:55 PM 39.0128 -85.6086 347° North 243 280 22,000  Level Indianapolis Center
Thu 04:21:57 PM 39.0772 -85.6267 348° North 238 274 22,000  Level Indianapolis Center
Thu 04:22:59 PM 39.1444 -85.6472 347° North 246 283 22,000  Level Indianapolis Center
Thu 04:24:01 PM 39.2233 -85.6694 348° North 243 280 22,000  Level Indianapolis Center
Thu 04:25:03 PM 39.2897 -85.6886 347° North 244 281 22,000  Level Indianapolis Center
Thu 04:26:05 PM 39.3564 -85.7089 347° North 246 283 22,000  Level Indianapolis Center
Thu 04:27:07 PM 39.4231 -85.7289 347° North 247 284 22,000  Level Indianapolis Center
Thu 04:28:09 PM 39.4903 -85.7478 348° North 248 285 22,000  Level Indianapolis Center
Thu 04:29:12 PM 39.5572 -85.7678 347° North 248 285 22,000 -144 Level Indianapolis Center
Thu 04:30:14 PM 39.6383 -85.7919 347° North 249 287 21,700 -774 Descending Indianapolis Center
Thu 04:31:16 PM 39.7119 -85.8142 347° North 267 307 20,400 -823 Descending Indianapolis Center
Thu 04:32:18 PM 39.7881 -85.8358 348° North 279 321 20,000 -194 Descending Indianapolis Center
Thu 04:33:20 PM 39.8556 -85.8564 347° North 257 296 20,000  Level Indianapolis Center
Thu 04:34:22 PM 39.9353 -85.8803 347° North 248 285 20,000  Level Indianapolis Center
Thu 04:35:24 PM 40.0011 -85.8997 347° North 245 282 20,000  Level Indianapolis Center
Thu 04:36:26 PM 40.0681 -85.9203 347° North 247 284 20,000  Level Indianapolis Center
Thu 04:37:28 PM 40.1314 -85.9481 341° North 243 280 20,000  Level Indianapolis Center
Thu 04:38:30 PM 40.1936 -85.9814 338° Northwest 244 281 20,000  Level Indianapolis Center
Thu 04:39:48 PM 40.2808 -86.0267 338° Northwest 243 280 20,000  Level Chicago Center
Thu 04:40:50 PM 40.3442 -86.0581 339° North 244 281 20,000  Level Chicago Center
Thu 04:41:52 PM 40.3978 -86.1069 325° Northwest 237 273 20,000  Level Chicago Center
Thu 04:42:54 PM 40.4481 -86.1644 319° Northwest 239 275 20,000 -726 Level Chicago Center
Thu 04:43:56 PM 40.5139 -86.2378 320° Northwest 260 299 18,500 -1,355 Descending Chicago Center
Thu 04:44:58 PM 40.5728 -86.3058 319° Northwest 280 322 17,200 -1,161 Descending Chicago Center
Thu 04:46:00 PM 40.6344 -86.3647 324° Northwest 276 318 16,100 -581 Descending Chicago Center
Thu 04:47:02 PM 40.6908 -86.4281 320° Northwest 267 307 16,000 -48 Descending Chicago Center
Thu 04:48:05 PM 40.7497 -86.4903 321° Northwest 245 282 16,000  Level Chicago Center
Thu 04:49:07 PM 40.8028 -86.5461 321° Northwest 242 278 16,000  Level Chicago Center
Thu 04:50:09 PM 40.8564 -86.6014 322° Northwest 243 280 16,000 -581 Level Chicago Center
Thu 04:51:11 PM 40.9114 -86.6617 320° Northwest 257 296 14,800 -1,161 Descending Chicago Center
Thu 04:52:13 PM 40.9714 -86.7228 322° Northwest 268 308 13,600 -1,306 Descending Chicago Center
Thu 04:53:15 PM 41.0378 -86.7914 322° Northwest 272 313 12,100 -1,210 Descending Chicago Center
Thu 04:54:17 PM 41.0953 -86.8550 320° Northwest 273 314 11,100 -484 Descending Chicago Center
Thu 04:55:19 PM 41.1556 -86.9022 329° Northwest 257 296 11,100 -194 Level Chicago Center
Thu 04:56:21 PM 41.2119 -86.9758 316° Northwest 255 293 10,700 -823 Descending Chicago Center
Thu 04:57:23 PM 41.2494 -87.0567 302° West 259 298 9,400 -1,306 Descending Chicago Center
Thu 04:58:25 PM 41.2892 -87.1350 304° West 258 297 8,000 -1,306 Descending Chicago Center
Thu 04:59:27 PM 41.3278 -87.2119 304° West 254 292 6,700 -1,258 Descending Chicago Center
Thu 05:00:29 PM 41.3678 -87.2911 304° West 257 296 5,400 -1,296 Descending Chicago Center
Thu 05:01:32 PM 41.4389 -87.3503 328° Northwest 266 306 4,000 -677 Descending Chicago Center
Thu 05:02:33 PM 41.4922 -87.3694 345° North 257 296 4,000 -48 Level Chicago Center
Thu 05:03:36 PM 41.5642 -87.4150 335° Northwest 242 278 3,900 -48 Descending Chicago Center
Thu 05:04:38 PM 41.6025 -87.4794 309° West 238 274 3,900 97 Level Chicago Center
Thu 05:05:40 PM 41.6411 -87.5469 307° West 233 268 4,100 -339 Climbing Chicago Center
Thu 05:06:42 PM 41.6911 -87.6161 314° West 222 255 3,200 -919 Descending Chicago Center
Thu 05:07:44 PM 41.7236 -87.6658 311° West 202 232 2,200 -823 Descending Chicago Center
Thu 05:08:46 PM 41.7494 -87.7019 314° West 158 182 1,500 -581 Descending Chicago Center
Thu 05:09:48 PM 41.7764 -87.7394 314° West 144 166 1,000 -484 Descending Chicago Center
Thu 05:11:00 PM 41.7833 -87.7500 14° North  Level FlightAware Approximate

Login

Don't have an account? Register now (free) for customized features, flight alerts, and more!